sensor_id;sensor_type;location;lat;lon;timestamp;temperature;humidity
21023;DHT22;10669;51.076;3.714;2022-10-31T00:01:14;14.90;11.70
21023;DHT22;10669;51.076;3.714;2022-10-31T00:03:41;14.70;15.10
21023;DHT22;10669;51.076;3.714;2022-10-31T00:06:06;15.00;7.80
21023;DHT22;10669;51.076;3.714;2022-10-31T00:08:33;14.80;7.40
21023;DHT22;10669;51.076;3.714;2022-10-31T00:11:02;14.80;8.40
21023;DHT22;10669;51.076;3.714;2022-10-31T00:13:28;14.70;13.00
21023;DHT22;10669;51.076;3.714;2022-10-31T00:15:55;14.70;17.90
21023;DHT22;10669;51.076;3.714;2022-10-31T00:18:21;14.70;19.50
21023;DHT22;10669;51.076;3.714;2022-10-31T00:20:46;14.70;20.70
21023;DHT22;10669;51.076;3.714;2022-10-31T00:23:12;14.70;21.80
21023;DHT22;10669;51.076;3.714;2022-10-31T00:25:41;14.70;16.50
21023;DHT22;10669;51.076;3.714;2022-10-31T00:28:09;14.70;11.50
21023;DHT22;10669;51.076;3.714;2022-10-31T00:30:37;14.70;12.00
21023;DHT22;10669;51.076;3.714;2022-10-31T00:33:05;14.80;12.90
21023;DHT22;10669;51.076;3.714;2022-10-31T00:35:31;14.70;15.60
21023;DHT22;10669;51.076;3.714;2022-10-31T00:37:57;14.60;16.50
21023;DHT22;10669;51.076;3.714;2022-10-31T00:40:23;14.60;21.40
21023;DHT22;10669;51.076;3.714;2022-10-31T00:42:49;14.60;22.50
21023;DHT22;10669;51.076;3.714;2022-10-31T00:45:16;14.60;19.80
21023;DHT22;10669;51.076;3.714;2022-10-31T00:47:42;14.60;16.10
21023;DHT22;10669;51.076;3.714;2022-10-31T00:50:08;14.60;14.50
21023;DHT22;10669;51.076;3.714;2022-10-31T00:52:34;14.40;21.90
21023;DHT22;10669;51.076;3.714;2022-10-31T00:55:02;14.50;26.10
21023;DHT22;10669;51.076;3.714;2022-10-31T00:57:30;14.40;29.20
21023;DHT22;10669;51.076;3.714;2022-10-31T00:59:56;14.40;34.00
21023;DHT22;10669;51.076;3.714;2022-10-31T01:02:22;14.40;37.90
21023;DHT22;10669;51.076;3.714;2022-10-31T01:04:49;14.40;37.00
21023;DHT22;10669;51.076;3.714;2022-10-31T01:07:17;14.30;40.50
21023;DHT22;10669;51.076;3.714;2022-10-31T01:09:46;14.40;38.10
21023;DHT22;10669;51.076;3.714;2022-10-31T01:12:12;14.40;36.40
21023;DHT22;10669;51.076;3.714;2022-10-31T01:14:41;14.40;31.20
21023;DHT22;10669;51.076;3.714;2022-10-31T01:17:09;14.40;29.80
21023;DHT22;10669;51.076;3.714;2022-10-31T01:19:38;14.40;29.80
21023;DHT22;10669;51.076;3.714;2022-10-31T01:22:03;14.30;31.30
21023;DHT22;10669;51.076;3.714;2022-10-31T01:24:32;14.30;32.50
21023;DHT22;10669;51.076;3.714;2022-10-31T01:26:58;14.40;38.30
21023;DHT22;10669;51.076;3.714;2022-10-31T01:29:24;14.30;32.60
21023;DHT22;10669;51.076;3.714;2022-10-31T01:31:50;14.30;32.70
21023;DHT22;10669;51.076;3.714;2022-10-31T01:34:17;14.00;28.30
21023;DHT22;10669;51.076;3.714;2022-10-31T01:36:45;13.90;41.60
21023;DHT22;10669;51.076;3.714;2022-10-31T01:39:15;13.70;43.60
21023;DHT22;10669;51.076;3.714;2022-10-31T01:41:53;13.90;55.90
21023;DHT22;10669;51.076;3.714;2022-10-31T01:46:56;13.80;50.00
21023;DHT22;10669;51.076;3.714;2022-10-31T01:52:39;13.70;44.50
21023;DHT22;10669;51.076;3.714;2022-10-31T01:55:11;13.70;48.00
21023;DHT22;10669;51.076;3.714;2022-10-31T01:57:41;13.80;38.60
21023;DHT22;10669;51.076;3.714;2022-10-31T02:00:09;13.90;37.70
21023;DHT22;10669;51.076;3.714;2022-10-31T02:02:38;13.70;22.20
21023;DHT22;10669;51.076;3.714;2022-10-31T02:05:12;13.70;26.00
21023;DHT22;10669;51.076;3.714;2022-10-31T02:07:53;13.90;27.70
21023;DHT22;10669;51.076;3.714;2022-10-31T02:10:22;13.90;20.10
21023;DHT22;10669;51.076;3.714;2022-10-31T02:12:51;13.90;4.40
21023;DHT22;10669;51.076;3.714;2022-10-31T02:15:18;14.00;7.80
21023;DHT22;10669;51.076;3.714;2022-10-31T02:17:44;13.80;9.80
21023;DHT22;10669;51.076;3.714;2022-10-31T02:20:22;13.90;11.70
21023;DHT22;10669;51.076;3.714;2022-10-31T02:26:25;13.90;25.10
21023;DHT22;10669;51.076;3.714;2022-10-31T02:29:01;14.10;16.00
21023;DHT22;10669;51.076;3.714;2022-10-31T02:31:53;14.10;13.50
21023;DHT22;10669;51.076;3.714;2022-10-31T02:34:58;13.90;17.50
21023;DHT22;10669;51.076;3.714;2022-10-31T02:37:50;13.80;18.10
21023;DHT22;10669;51.076;3.714;2022-10-31T02:40:27;13.70;21.00
21023;DHT22;10669;51.076;3.714;2022-10-31T02:43:20;13.80;24.00
21023;DHT22;10669;51.076;3.714;2022-10-31T02:46:08;13.80;24.80
21023;DHT22;10669;51.076;3.714;2022-10-31T02:48:38;13.80;25.80
21023;DHT22;10669;51.076;3.714;2022-10-31T02:51:05;13.90;22.50
21023;DHT22;10669;51.076;3.714;2022-10-31T02:53:37;14.00;26.30
21023;DHT22;10669;51.076;3.714;2022-10-31T02:56:13;13.90;15.80
21023;DHT22;10669;51.076;3.714;2022-10-31T02:58:53;13.90;16.30
21023;DHT22;10669;51.076;3.714;2022-10-31T03:17:36;13.40;27.80
21023;DHT22;10669;51.076;3.714;2022-10-31T03:20:04;13.40;30.80
21023;DHT22;10669;51.076;3.714;2022-10-31T03:22:33;13.50;34.70
21023;DHT22;10669;51.076;3.714;2022-10-31T03:25:02;13.60;25.50
21023;DHT22;10669;51.076;3.714;2022-10-31T03:27:32;13.70;23.90
21023;DHT22;10669;51.076;3.714;2022-10-31T03:30:03;13.80;23.30
21023;DHT22;10669;51.076;3.714;2022-10-31T03:32:34;13.90;13.50
21023;DHT22;10669;51.076;3.714;2022-10-31T03:35:04;13.60;7.80
21023;DHT22;10669;51.076;3.714;2022-10-31T03:37:35;13.60;11.20
21023;DHT22;10669;51.076;3.714;2022-10-31T03:40:09;13.60;17.00
21023;DHT22;10669;51.076;3.714;2022-10-31T03:42:41;13.70;16.70
21023;DHT22;10669;51.076;3.714;2022-10-31T03:45:14;13.60;18.60
21023;DHT22;10669;51.076;3.714;2022-10-31T03:47:42;13.50;15.80
21023;DHT22;10669;51.076;3.714;2022-10-31T03:50:13;13.40;30.80
21023;DHT22;10669;51.076;3.714;2022-10-31T03:52:55;13.40;31.30
21023;DHT22;10669;51.076;3.714;2022-10-31T03:55:33;13.30;28.20
21023;DHT22;10669;51.076;3.714;2022-10-31T03:58:10;13.30;40.30
21023;DHT22;10669;51.076;3.714;2022-10-31T04:00:42;13.30;41.70
21023;DHT22;10669;51.076;3.714;2022-10-31T04:03:18;13.50;44.00
21023;DHT22;10669;51.076;3.714;2022-10-31T04:05:47;13.60;28.00
21023;DHT22;10669;51.076;3.714;2022-10-31T04:08:19;13.60;27.30
21023;DHT22;10669;51.076;3.714;2022-10-31T04:10:48;13.40;26.10
21023;DHT22;10669;51.076;3.714;2022-10-31T04:13:19;13.10;29.10
21023;DHT22;10669;51.076;3.714;2022-10-31T04:15:47;13.00;34.70
21023;DHT22;10669;51.076;3.714;2022-10-31T04:18:13;12.90;45.20
21023;DHT22;10669;51.076;3.714;2022-10-31T04:20:40;12.80;40.80
21023;DHT22;10669;51.076;3.714;2022-10-31T04:23:24;12.70;44.80
21023;DHT22;10669;51.076;3.714;2022-10-31T04:25:49;12.70;55.20
21023;DHT22;10669;51.076;3.714;2022-10-31T04:28:16;12.80;54.40
21023;DHT22;10669;51.076;3.714;2022-10-31T04:30:42;12.60;53.10
21023;DHT22;10669;51.076;3.714;2022-10-31T04:33:07;12.80;55.70
21023;DHT22;10669;51.076;3.714;2022-10-31T04:35:34;12.90;47.50
21023;DHT22;10669;51.076;3.714;2022-10-31T04:38:01;13.10;44.00
21023;DHT22;10669;51.076;3.714;2022-10-31T04:40:28;13.10;29.00
21023;DHT22;10669;51.076;3.714;2022-10-31T04:42:56;13.10;28.50
21023;DHT22;10669;51.076;3.714;2022-10-31T04:45:23;13.00;25.50
21023;DHT22;10669;51.076;3.714;2022-10-31T04:47:51;12.90;21.70
21023;DHT22;10669;51.076;3.714;2022-10-31T04:50:20;12.60;17.70
21023;DHT22;10669;51.076;3.714;2022-10-31T04:52:47;12.30;23.20
21023;DHT22;10669;51.076;3.714;2022-10-31T04:55:14;12.10;37.30
21023;DHT22;10669;51.076;3.714;2022-10-31T04:57:42;11.90;51.90
21023;DHT22;10669;51.076;3.714;2022-10-31T05:00:08;11.90;58.70
21023;DHT22;10669;51.076;3.714;2022-10-31T05:02:49;12.00;71.60
21023;DHT22;10669;51.076;3.714;2022-10-31T05:05:19;12.30;71.20
21023;DHT22;10669;51.076;3.714;2022-10-31T05:07:46;12.50;66.20
21023;DHT22;10669;51.076;3.714;2022-10-31T05:10:18;12.70;56.50
21023;DHT22;10669;51.076;3.714;2022-10-31T05:12:52;12.70;45.30
21023;DHT22;10669;51.076;3.714;2022-10-31T05:15:26;12.50;28.60
21023;DHT22;10669;51.076;3.714;2022-10-31T05:17:59;12.20;27.20
21023;DHT22;10669;51.076;3.714;2022-10-31T05:20:29;12.30;42.00
21023;DHT22;10669;51.076;3.714;2022-10-31T05:22:57;12.50;37.60
21023;DHT22;10669;51.076;3.714;2022-10-31T05:25:27;12.40;33.10
21023;DHT22;10669;51.076;3.714;2022-10-31T05:27:54;12.30;29.50
21023;DHT22;10669;51.076;3.714;2022-10-31T05:30:27;12.20;29.10
21023;DHT22;10669;51.076;3.714;2022-10-31T05:32:53;12.00;33.70
21023;DHT22;10669;51.076;3.714;2022-10-31T05:35:31;12.10;40.70
21023;DHT22;10669;51.076;3.714;2022-10-31T05:37:58;11.90;37.00
21023;DHT22;10669;51.076;3.714;2022-10-31T05:40:27;11.80;40.70
21023;DHT22;10669;51.076;3.714;2022-10-31T05:42:55;11.70;49.70
21023;DHT22;10669;51.076;3.714;2022-10-31T05:45:24;11.80;54.00
21023;DHT22;10669;51.076;3.714;2022-10-31T05:47:59;11.90;49.60
21023;DHT22;10669;51.076;3.714;2022-10-31T05:50:27;11.90;47.10
21023;DHT22;10669;51.076;3.714;2022-10-31T05:53:00;11.70;40.00
21023;DHT22;10669;51.076;3.714;2022-10-31T05:55:27;11.90;47.70
21023;DHT22;10669;51.076;3.714;2022-10-31T05:57:54;11.90;42.60
21023;DHT22;10669;51.076;3.714;2022-10-31T06:00:21;12.10;42.90
21023;DHT22;10669;51.076;3.714;2022-10-31T06:02:47;11.90;34.10
21023;DHT22;10669;51.076;3.714;2022-10-31T06:05:15;12.00;40.00
21023;DHT22;10669;51.076;3.714;2022-10-31T06:07:41;12.20;33.50
21023;DHT22;10669;51.076;3.714;2022-10-31T06:10:08;12.00;22.50
21023;DHT22;10669;51.076;3.714;2022-10-31T06:12:35;11.90;21.20
21023;DHT22;10669;51.076;3.714;2022-10-31T06:15:06;11.50;31.40
21023;DHT22;10669;51.076;3.714;2022-10-31T06:17:33;11.80;50.50
21023;DHT22;10669;51.076;3.714;2022-10-31T06:19:59;12.20;44.40
21023;DHT22;10669;51.076;3.714;2022-10-31T06:22:25;12.20;29.20
21023;DHT22;10669;51.076;3.714;2022-10-31T06:24:50;11.90;26.90
21023;DHT22;10669;51.076;3.714;2022-10-31T06:27:17;12.00;32.90
21023;DHT22;10669;51.076;3.714;2022-10-31T06:29:45;12.10;41.00
21023;DHT22;10669;51.076;3.714;2022-10-31T06:32:15;12.50;37.30
21023;DHT22;10669;51.076;3.714;2022-10-31T06:34:42;12.50;28.30
21023;DHT22;10669;51.076;3.714;2022-10-31T06:37:10;12.60;32.90
21023;DHT22;10669;51.076;3.714;2022-10-31T06:39:38;12.90;23.20
21023;DHT22;10669;51.076;3.714;2022-10-31T06:42:04;12.60;30.00
21023;DHT22;10669;51.076;3.714;2022-10-31T06:44:30;12.60;34.90
21023;DHT22;10669;51.076;3.714;2022-10-31T06:46:56;12.40;49.50
21023;DHT22;10669;51.076;3.714;2022-10-31T06:49:22;12.40;51.40
21023;DHT22;10669;51.076;3.714;2022-10-31T06:51:48;12.40;61.50
21023;DHT22;10669;51.076;3.714;2022-10-31T06:54:16;12.60;70.70
21023;DHT22;10669;51.076;3.714;2022-10-31T06:56:46;12.50;71.70
21023;DHT22;10669;51.076;3.714;2022-10-31T06:59:12;12.70;75.20
21023;DHT22;10669;51.076;3.714;2022-10-31T07:01:41;12.80;69.30
21023;DHT22;10669;51.076;3.714;2022-10-31T07:04:11;12.80;69.40
21023;DHT22;10669;51.076;3.714;2022-10-31T07:06:40;12.80;71.20
21023;DHT22;10669;51.076;3.714;2022-10-31T07:09:08;12.90;71.90
21023;DHT22;10669;51.076;3.714;2022-10-31T07:11:35;13.30;68.30
21023;DHT22;10669;51.076;3.714;2022-10-31T07:14:02;13.60;53.80
21023;DHT22;10669;51.076;3.714;2022-10-31T07:16:30;13.80;35.80
21023;DHT22;10669;51.076;3.714;2022-10-31T07:18:58;13.80;26.40
21023;DHT22;10669;51.076;3.714;2022-10-31T07:21:26;13.60;25.00
21023;DHT22;10669;51.076;3.714;2022-10-31T07:23:55;13.60;30.50
21023;DHT22;10669;51.076;3.714;2022-10-31T07:26:24;13.70;33.10
21023;DHT22;10669;51.076;3.714;2022-10-31T07:28:50;13.80;29.50
21023;DHT22;10669;51.076;3.714;2022-10-31T07:31:17;13.70;26.70
21023;DHT22;10669;51.076;3.714;2022-10-31T07:33:43;13.80;22.90
21023;DHT22;10669;51.076;3.714;2022-10-31T07:36:11;13.60;21.40
21023;DHT22;10669;51.076;3.714;2022-10-31T07:38:38;13.70;31.10
21023;DHT22;10669;51.076;3.714;2022-10-31T07:41:04;13.70;24.20
21023;DHT22;10669;51.076;3.714;2022-10-31T07:43:31;13.70;22.70
21023;DHT22;10669;51.076;3.714;2022-10-31T07:45:57;13.80;31.00
21023;DHT22;10669;51.076;3.714;2022-10-31T07:48:26;13.70;30.10
21023;DHT22;10669;51.076;3.714;2022-10-31T07:50:52;13.70;33.00
21023;DHT22;10669;51.076;3.714;2022-10-31T07:53:19;13.40;36.70
21023;DHT22;10669;51.076;3.714;2022-10-31T07:55:45;13.40;45.90
21023;DHT22;10669;51.076;3.714;2022-10-31T07:58:16;13.50;54.40
21023;DHT22;10669;51.076;3.714;2022-10-31T08:00:44;13.40;63.40
21023;DHT22;10669;51.076;3.714;2022-10-31T08:03:14;13.70;67.20
21023;DHT22;10669;51.076;3.714;2022-10-31T08:05:42;13.90;53.40
21023;DHT22;10669;51.076;3.714;2022-10-31T08:08:10;13.80;46.10
21023;DHT22;10669;51.076;3.714;2022-10-31T08:10:41;13.90;38.50
21023;DHT22;10669;51.076;3.714;2022-10-31T08:13:12;14.00;29.80
21023;DHT22;10669;51.076;3.714;2022-10-31T08:15:39;13.80;29.20
21023;DHT22;10669;51.076;3.714;2022-10-31T08:18:16;13.70;32.20
21023;DHT22;10669;51.076;3.714;2022-10-31T08:20:44;13.60;47.30
21023;DHT22;10669;51.076;3.714;2022-10-31T08:23:11;13.80;58.80
21023;DHT22;10669;51.076;3.714;2022-10-31T08:25:40;14.00;55.20
21023;DHT22;10669;51.076;3.714;2022-10-31T08:28:09;14.40;40.10
21023;DHT22;10669;51.076;3.714;2022-10-31T08:30:37;14.50;27.70
21023;DHT22;10669;51.076;3.714;2022-10-31T08:33:12;14.40;17.90
21023;DHT22;10669;51.076;3.714;2022-10-31T08:35:38;14.10;15.10
21023;DHT22;10669;51.076;3.714;2022-10-31T08:38:04;14.00;27.50
21023;DHT22;10669;51.076;3.714;2022-10-31T08:40:31;13.80;47.90
21023;DHT22;10669;51.076;3.714;2022-10-31T08:43:08;13.90;60.30
21023;DHT22;10669;51.076;3.714;2022-10-31T08:45:37;14.40;40.80
21023;DHT22;10669;51.076;3.714;2022-10-31T08:48:04;14.80;12.90
21023;DHT22;10669;51.076;3.714;2022-10-31T08:50:34;14.70;2.80
21023;DHT22;10669;51.076;3.714;2022-10-31T08:53:09;14.80;10.40
21023;DHT22;10669;51.076;3.714;2022-10-31T08:55:37;14.60;2.30
21023;DHT22;10669;51.076;3.714;2022-10-31T08:58:05;14.70;13.50
21023;DHT22;10669;51.076;3.714;2022-10-31T09:00:33;14.70;13.30
21023;DHT22;10669;51.076;3.714;2022-10-31T09:03:04;15.00;8.90
21023;DHT22;10669;51.076;3.714;2022-10-31T09:05:37;14.90;2.50
21023;DHT22;10669;51.076;3.714;2022-10-31T09:08:04;15.10;11.40
21023;DHT22;10669;51.076;3.714;2022-10-31T09:10:34;14.90;14.10
21023;DHT22;10669;51.076;3.714;2022-10-31T09:13:05;15.10;20.40
21023;DHT22;10669;51.076;3.714;2022-10-31T09:15:39;15.50;1.60
21023;DHT22;10669;51.076;3.714;2022-10-31T09:18:08;15.50;1.00
21023;DHT22;10669;51.076;3.714;2022-10-31T09:20:38;15.60;1.00
21023;DHT22;10669;51.076;3.714;2022-10-31T09:23:08;15.70;1.00
21023;DHT22;10669;51.076;3.714;2022-10-31T09:25:36;15.80;1.00
21023;DHT22;10669;51.076;3.714;2022-10-31T09:28:04;15.90;1.00
21023;DHT22;10669;51.076;3.714;2022-10-31T09:30:33;16.00;1.00
21023;DHT22;10669;51.076;3.714;2022-10-31T09:33:01;16.10;1.00
21023;DHT22;10669;51.076;3.714;2022-10-31T09:35:30;16.10;1.00
21023;DHT22;10669;51.076;3.714;2022-10-31T09:38:04;16.20;1.00
21023;DHT22;10669;51.076;3.714;2022-10-31T09:40:32;16.20;1.00
21023;DHT22;10669;51.076;3.714;2022-10-31T09:43:14;16.20;1.00
21023;DHT22;10669;51.076;3.714;2022-10-31T09:48:48;15.70;1.00
21023;DHT22;10669;51.076;3.714;2022-10-31T09:51:43;15.70;1.00
21023;DHT22;10669;51.076;3.714;2022-10-31T09:54:47;16.10;1.00
21023;DHT22;10669;51.076;3.714;2022-10-31T09:57:25;16.00;1.00
21023;DHT22;10669;51.076;3.714;2022-10-31T09:59:51;15.90;1.00
21023;DHT22;10669;51.076;3.714;2022-10-31T10:02:43;15.90;1.00
21023;DHT22;10669;51.076;3.714;2022-10-31T10:05:11;16.10;1.00
21023;DHT22;10669;51.076;3.714;2022-10-31T10:08:02;16.20;1.00
21023;DHT22;10669;51.076;3.714;2022-10-31T10:10:50;16.20;1.00
21023;DHT22;10669;51.076;3.714;2022-10-31T10:16:52;16.50;1.00
21023;DHT22;10669;51.076;3.714;2022-10-31T10:22:27;16.70;1.00
21023;DHT22;10669;51.076;3.714;2022-10-31T10:25:23;16.60;1.00
21023;DHT22;10669;51.076;3.714;2022-10-31T10:30:42;16.40;1.00
21023;DHT22;10669;51.076;3.714;2022-10-31T10:33:12;16.80;1.00
21023;DHT22;10669;51.076;3.714;2022-10-31T10:35:47;17.10;1.00
21023;DHT22;10669;51.076;3.714;2022-10-31T10:41:05;17.20;1.00
21023;DHT22;10669;51.076;3.714;2022-10-31T10:43:38;17.20;1.00
21023;DHT22;10669;51.076;3.714;2022-10-31T10:49:17;17.60;1.00
21023;DHT22;10669;51.076;3.714;2022-10-31T10:51:44;17.60;1.00
21023;DHT22;10669;51.076;3.714;2022-10-31T10:57:20;17.30;1.00
21023;DHT22;10669;51.076;3.714;2022-10-31T10:59:48;17.50;1.00
21023;DHT22;10669;51.076;3.714;2022-10-31T11:02:25;17.60;1.00
21023;DHT22;10669;51.076;3.714;2022-10-31T11:04:53;17.40;1.00
21023;DHT22;10669;51.076;3.714;2022-10-31T11:07:19;17.50;1.00
21023;DHT22;10669;51.076;3.714;2022-10-31T11:09:47;17.00;1.00
21023;DHT22;10669;51.076;3.714;2022-10-31T11:12:19;16.90;1.00
21023;DHT22;10669;51.076;3.714;2022-10-31T11:14:55;17.00;1.00
21023;DHT22;10669;51.076;3.714;2022-10-31T11:17:32;16.90;1.00
21023;DHT22;10669;51.076;3.714;2022-10-31T11:22:47;16.80;1.00
21023;DHT22;10669;51.076;3.714;2022-10-31T11:25:23;16.90;1.00
21023;DHT22;10669;51.076;3.714;2022-10-31T11:28:03;17.30;1.00
21023;DHT22;10669;51.076;3.714;2022-10-31T11:30:47;17.70;1.00
21023;DHT22;10669;51.076;3.714;2022-10-31T11:33:34;17.80;1.00
21023;DHT22;10669;51.076;3.714;2022-10-31T11:36:35;17.80;1.00
21023;DHT22;10669;51.076;3.714;2022-10-31T11:39:15;17.90;1.00
21023;DHT22;10669;51.076;3.714;2022-10-31T11:41:42;17.90;1.00
21023;DHT22;10669;51.076;3.714;2022-10-31T11:44:19;17.90;1.00
21023;DHT22;10669;51.076;3.714;2022-10-31T11:46:51;17.90;1.00
21023;DHT22;10669;51.076;3.714;2022-10-31T11:49:38;18.00;1.00
21023;DHT22;10669;51.076;3.714;2022-10-31T11:52:13;17.90;1.00
21023;DHT22;10669;51.076;3.714;2022-10-31T11:54:46;17.90;1.00
21023;DHT22;10669;51.076;3.714;2022-10-31T11:57:26;18.10;1.00
21023;DHT22;10669;51.076;3.714;2022-10-31T11:59:58;18.30;1.00
21023;DHT22;10669;51.076;3.714;2022-10-31T12:02:26;18.40;1.00
21023;DHT22;10669;51.076;3.714;2022-10-31T12:05:04;18.60;1.00
21023;DHT22;10669;51.076;3.714;2022-10-31T12:07:33;18.60;1.00
21023;DHT22;10669;51.076;3.714;2022-10-31T12:09:59;18.50;1.00
21023;DHT22;10669;51.076;3.714;2022-10-31T12:12:53;18.30;1.00
21023;DHT22;10669;51.076;3.714;2022-10-31T12:21:18;18.20;1.00
21023;DHT22;10669;51.076;3.714;2022-10-31T12:24:07;18.40;1.00
21023;DHT22;10669;51.076;3.714;2022-10-31T12:27:14;18.40;1.00
21023;DHT22;10669;51.076;3.714;2022-10-31T12:40:51;18.30;1.00
21023;DHT22;10669;51.076;3.714;2022-10-31T12:46:02;18.60;1.00
21023;DHT22;10669;51.076;3.714;2022-10-31T13:07:23;18.40;1.00
21023;DHT22;10669;51.076;3.714;2022-10-31T13:09:56;18.20;1.00
21023;DHT22;10669;51.076;3.714;2022-10-31T13:12:22;18.20;1.00
21023;DHT22;10669;51.076;3.714;2022-10-31T13:14:53;18.40;1.00
21023;DHT22;10669;51.076;3.714;2022-10-31T13:17:39;18.10;1.00
21023;DHT22;10669;51.076;3.714;2022-10-31T13:25:51;17.60;1.00
21023;DHT22;10669;51.076;3.714;2022-10-31T13:28:35;17.80;1.00
21023;DHT22;10669;51.076;3.714;2022-10-31T13:31:04;18.10;1.00
21023;DHT22;10669;51.076;3.714;2022-10-31T13:33:49;18.50;1.00
21023;DHT22;10669;51.076;3.714;2022-10-31T13:42:09;18.40;1.00
21023;DHT22;10669;51.076;3.714;2022-10-31T13:44:37;18.60;1.00
21023;DHT22;10669;51.076;3.714;2022-10-31T13:49:48;18.60;1.00
21023;DHT22;10669;51.076;3.714;2022-10-31T13:52:21;18.50;1.00
21023;DHT22;10669;51.076;3.714;2022-10-31T13:54:49;18.50;1.00
21023;DHT22;10669;51.076;3.714;2022-10-31T13:57:52;18.60;1.00
21023;DHT22;10669;51.076;3.714;2022-10-31T14:00:25;18.40;1.00
21023;DHT22;10669;51.076;3.714;2022-10-31T14:02:53;18.00;1.00
21023;DHT22;10669;51.076;3.714;2022-10-31T14:05:25;18.20;1.00
21023;DHT22;10669;51.076;3.714;2022-10-31T14:07:53;18.40;1.00
21023;DHT22;10669;51.076;3.714;2022-10-31T14:10:28;18.50;1.00
21023;DHT22;10669;51.076;3.714;2022-10-31T14:16:17;19.00;1.00
21023;DHT22;10669;51.076;3.714;2022-10-31T14:18:49;19.00;1.00
21023;DHT22;10669;51.076;3.714;2022-10-31T14:21:26;18.90;1.00
21023;DHT22;10669;51.076;3.714;2022-10-31T14:23:55;18.70;1.00
21023;DHT22;10669;51.076;3.714;2022-10-31T14:29:00;18.60;1.00
21023;DHT22;10669;51.076;3.714;2022-10-31T14:31:41;18.60;1.00
21023;DHT22;10669;51.076;3.714;2022-10-31T14:34:18;18.60;1.00
21023;DHT22;10669;51.076;3.714;2022-10-31T14:52:29;18.40;1.00
21023;DHT22;10669;51.076;3.714;2022-10-31T14:54:57;19.00;1.00
21023;DHT22;10669;51.076;3.714;2022-10-31T14:57:33;19.60;1.00
21023;DHT22;10669;51.076;3.714;2022-10-31T15:00:17;20.00;1.00
21023;DHT22;10669;51.076;3.714;2022-10-31T15:05:28;20.40;1.00
21023;DHT22;10669;51.076;3.714;2022-10-31T15:07:57;20.90;1.00
21023;DHT22;10669;51.076;3.714;2022-10-31T15:10:31;20.80;1.00
21023;DHT22;10669;51.076;3.714;2022-10-31T15:13:20;20.20;1.00
21023;DHT22;10669;51.076;3.714;2022-10-31T15:15:54;20.10;1.00
21023;DHT22;10669;51.076;3.714;2022-10-31T15:18:24;19.60;1.00
21023;DHT22;10669;51.076;3.714;2022-10-31T15:20:54;19.30;1.00
21023;DHT22;10669;51.076;3.714;2022-10-31T15:23:28;19.30;1.00
21023;DHT22;10669;51.076;3.714;2022-10-31T15:26:00;19.30;1.00
21023;DHT22;10669;51.076;3.714;2022-10-31T15:28:27;19.20;1.00
21023;DHT22;10669;51.076;3.714;2022-10-31T15:30:58;18.90;1.00
21023;DHT22;10669;51.076;3.714;2022-10-31T15:33:29;18.70;1.00
21023;DHT22;10669;51.076;3.714;2022-10-31T15:35:58;18.70;1.00
21023;DHT22;10669;51.076;3.714;2022-10-31T15:38:28;18.80;1.00
21023;DHT22;10669;51.076;3.714;2022-10-31T15:41:22;18.80;1.00
21023;DHT22;10669;51.076;3.714;2022-10-31T15:43:59;18.90;1.00
21023;DHT22;10669;51.076;3.714;2022-10-31T15:46:32;18.80;1.00
21023;DHT22;10669;51.076;3.714;2022-10-31T15:49:00;18.60;1.00
21023;DHT22;10669;51.076;3.714;2022-10-31T15:51:32;18.60;1.00
21023;DHT22;10669;51.076;3.714;2022-10-31T15:53:59;18.50;1.00
21023;DHT22;10669;51.076;3.714;2022-10-31T15:56:31;18.40;1.00
21023;DHT22;10669;51.076;3.714;2022-10-31T15:58:58;18.20;1.00
21023;DHT22;10669;51.076;3.714;2022-10-31T16:01:30;18.30;1.00
21023;DHT22;10669;51.076;3.714;2022-10-31T16:04:19;18.10;1.00
21023;DHT22;10669;51.076;3.714;2022-10-31T16:07:01;18.10;1.00
21023;DHT22;10669;51.076;3.714;2022-10-31T16:09:27;18.00;1.00
21023;DHT22;10669;51.076;3.714;2022-10-31T16:11:56;18.00;1.00
21023;DHT22;10669;51.076;3.714;2022-10-31T16:14:26;18.00;1.00
21023;DHT22;10669;51.076;3.714;2022-10-31T16:16:55;17.90;1.00
21023;DHT22;10669;51.076;3.714;2022-10-31T16:19:25;17.80;1.00
21023;DHT22;10669;51.076;3.714;2022-10-31T16:21:55;17.80;1.00
21023;DHT22;10669;51.076;3.714;2022-10-31T16:24:38;17.70;1.00
21023;DHT22;10669;51.076;3.714;2022-10-31T16:27:22;17.60;1.00
21023;DHT22;10669;51.076;3.714;2022-10-31T16:29:51;17.40;1.00
21023;DHT22;10669;51.076;3.714;2022-10-31T16:37:33;17.40;1.00
21023;DHT22;10669;51.076;3.714;2022-10-31T16:39:59;17.40;1.00
21023;DHT22;10669;51.076;3.714;2022-10-31T16:42:25;17.40;1.00
21023;DHT22;10669;51.076;3.714;2022-10-31T16:44:51;17.20;1.00
21023;DHT22;10669;51.076;3.714;2022-10-31T16:47:17;17.40;1.00
21023;DHT22;10669;51.076;3.714;2022-10-31T16:49:43;17.30;1.00
21023;DHT22;10669;51.076;3.714;2022-10-31T16:52:11;17.50;1.00
21023;DHT22;10669;51.076;3.714;2022-10-31T16:54:37;17.40;1.00
21023;DHT22;10669;51.076;3.714;2022-10-31T16:57:03;17.30;1.00
21023;DHT22;10669;51.076;3.714;2022-10-31T16:59:30;17.40;1.00
21023;DHT22;10669;51.076;3.714;2022-10-31T17:01:59;17.20;1.00
21023;DHT22;10669;51.076;3.714;2022-10-31T17:04:25;17.10;1.00
21023;DHT22;10669;51.076;3.714;2022-10-31T17:06:52;16.80;1.00
21023;DHT22;10669;51.076;3.714;2022-10-31T17:09:17;16.70;7.90
21023;DHT22;10669;51.076;3.714;2022-10-31T17:11:48;16.90;8.60
21023;DHT22;10669;51.076;3.714;2022-10-31T17:14:17;16.90;1.00
21023;DHT22;10669;51.076;3.714;2022-10-31T17:16:44;16.80;3.20
21023;DHT22;10669;51.076;3.714;2022-10-31T17:19:10;16.90;1.00
21023;DHT22;10669;51.076;3.714;2022-10-31T17:21:37;16.80;3.70
21023;DHT22;10669;51.076;3.714;2022-10-31T17:24:03;16.90;4.80
21023;DHT22;10669;51.076;3.714;2022-10-31T17:26:29;17.00;2.60
21023;DHT22;10669;51.076;3.714;2022-10-31T17:28:54;16.90;3.40
21023;DHT22;10669;51.076;3.714;2022-10-31T17:31:30;16.90;1.00
21023;DHT22;10669;51.076;3.714;2022-10-31T17:33:57;16.90;1.00
21023;DHT22;10669;51.076;3.714;2022-10-31T17:36:24;16.90;1.00
21023;DHT22;10669;51.076;3.714;2022-10-31T17:38:49;16.80;1.00
21023;DHT22;10669;51.076;3.714;2022-10-31T17:41:15;16.80;1.00
21023;DHT22;10669;51.076;3.714;2022-10-31T17:43:40;16.70;1.00
21023;DHT22;10669;51.076;3.714;2022-10-31T17:46:06;16.70;2.60
21023;DHT22;10669;51.076;3.714;2022-10-31T17:48:34;16.60;1.00
21023;DHT22;10669;51.076;3.714;2022-10-31T17:51:02;16.60;7.90
21023;DHT22;10669;51.076;3.714;2022-10-31T17:53:29;16.60;8.70
21023;DHT22;10669;51.076;3.714;2022-10-31T17:56:03;16.70;5.20
21023;DHT22;10669;51.076;3.714;2022-10-31T17:58:29;16.70;1.00
21023;DHT22;10669;51.076;3.714;2022-10-31T18:00:57;16.80;1.00
21023;DHT22;10669;51.076;3.714;2022-10-31T18:03:24;16.90;1.00
21023;DHT22;10669;51.076;3.714;2022-10-31T18:05:56;16.60;1.00
21023;DHT22;10669;51.076;3.714;2022-10-31T18:08:35;16.50;1.00
21023;DHT22;10669;51.076;3.714;2022-10-31T18:11:05;16.40;6.20
21023;DHT22;10669;51.076;3.714;2022-10-31T18:13:34;16.60;1.00